Nouméa, Nouvelle-Calédonie

15:16 NCT le 02 août 2015 (GMT +1100)
La Tontouta | | Change Station
CLOSE
Current Station
Aéroport
Location: La Tontouta,
Altitude: 52 ft
Stations météo à proximité

Alt. 52 ft 22.02 °S, 166.22 °E | Updated 16 minutes ago

Mostly Cloudy
Nuageux
79 ° F
Paraît 79 ° F
N
9
Vent Variable Vent de NE

Aujourd'hui
Haut(e) -- | Bas -- ° F
--% Risque de précip.
Hier
Haut(e) -- | Bas -- ° F
Precip. -- pouce
6:27 AM 5:34 PM
Lune gibbeuse décroissante, 96% visible
Pression 30.04 pouce
Visibilité 6.2 Miles terrestres
Nuages Nuageux 5600 ft
Nuageux 6800 ft
Point de rosée 54 ° F
Humidité 42%
Précipitations 0.00 pouce
Profondeur de la couche neigeuse Non disponible.
UV 2 sur 12
Pollen Non disponible.
Qualité de l'air Non disponible.
Flu Activity Non disponible.
METAR NWWW 020400Z AUTO 04008KT 350V100 9999 BKN056 BKN068 26/12 Q1017

More Conditions Fewer Conditions

Pression 30.04 pouce
Visibilité 6.2 Miles terrestres
Nuages Nuageux 5600 ft
Nuageux 6800 ft
Point de rosée 54 ° F
Humidité 42%
Précipitations 0.00 pouce
Profondeur de la couche neigeuse Non disponible.
UV 2 sur 12
Pollen Non disponible.
Qualité de l'air Non disponible.
Flu Activity Non disponible.
METAR NWWW 020400Z AUTO 04008KT 350V100 9999 BKN056 BKN068 26/12 Q1017

More Conditions Fewer Conditions

10-Day Weather Forecast

×

Almanac

Astronomie

Aug. 02, 2015 Lever Coucher
Temps réel
Crépuscule civil
Crépuscule nautique
Crépuscule astronomique
Lune
Durée de lumière visible
Longueur du jour
Tomorrow will be .
, % of the Moon is Illuminated

Extrêmes aujourd'hui

Country Highs Country Lows

Community

WunderPhotos

Upload Photos

1,843,182 Photos téléchargées !

WunderBlogs® & News

Nearby

Qualité de l'air

  Qualité de l'air Indice de la qualité de l'air Polluant
Not available.

Épaisseur de neige

Station Depth Altitude

Activité sismique

Ville Distance Mag. Time & Date
Minimum magnitude displayed is 2.5.

Températures des eaux côtières

Lieu Température

Stations

Stations météo à proximité

Emplacement de la station Température Refroidissement éolien Point de rosée Humidité Vent Precip. Alt. Mise à jour Type